sensor_id;sensor_type;location;lat;lon;timestamp;P1;durP1;ratioP1;P2;durP2;ratioP2
20056;SDS011;10189;49.546;7.906;2022-10-13T00:00:43;78.28;;;38.58;;
20056;SDS011;10189;49.546;7.906;2022-10-13T00:03:11;73.55;;;38.53;;
20056;SDS011;10189;49.546;7.906;2022-10-13T00:05:41;71.20;;;38.22;;
20056;SDS011;10189;49.546;7.906;2022-10-13T00:08:10;65.28;;;35.83;;
20056;SDS011;10189;49.546;7.906;2022-10-13T00:10:44;76.15;;;37.33;;
20056;SDS011;10189;49.546;7.906;2022-10-13T00:13:12;66.85;;;34.85;;
20056;SDS011;10189;49.546;7.906;2022-10-13T00:15:40;75.07;;;37.35;;
20056;SDS011;10189;49.546;7.906;2022-10-13T00:18:09;66.75;;;37.28;;
20056;SDS011;10189;49.546;7.906;2022-10-13T00:20:39;67.60;;;35.10;;
20056;SDS011;10189;49.546;7.906;2022-10-13T00:23:10;58.35;;;33.65;;
20056;SDS011;10189;49.546;7.906;2022-10-13T00:25:45;64.45;;;34.22;;
20056;SDS011;10189;49.546;7.906;2022-10-13T00:28:13;67.30;;;34.85;;
20056;SDS011;10189;49.546;7.906;2022-10-13T00:30:41;63.55;;;34.25;;
20056;SDS011;10189;49.546;7.906;2022-10-13T00:33:08;64.80;;;34.35;;
20056;SDS011;10189;49.546;7.906;2022-10-13T00:35:42;62.45;;;32.85;;
20056;SDS011;10189;49.546;7.906;2022-10-13T00:38:13;67.70;;;34.20;;
20056;SDS011;10189;49.546;7.906;2022-10-13T00:40:45;64.55;;;33.58;;
20056;SDS011;10189;49.546;7.906;2022-10-13T00:46:51;70.95;;;35.92;;
20056;SDS011;10189;49.546;7.906;2022-10-13T00:49:17;69.20;;;34.33;;
20056;SDS011;10189;49.546;7.906;2022-10-13T00:51:46;69.75;;;34.72;;
20056;SDS011;10189;49.546;7.906;2022-10-13T00:54:17;60.10;;;32.78;;
20056;SDS011;10189;49.546;7.906;2022-10-13T00:56:48;64.05;;;33.33;;
20056;SDS011;10189;49.546;7.906;2022-10-13T00:59:21;59.47;;;32.70;;
20056;SDS011;10189;49.546;7.906;2022-10-13T01:01:53;58.70;;;31.55;;
20056;SDS011;10189;49.546;7.906;2022-10-13T01:04:24;58.88;;;32.55;;
20056;SDS011;10189;49.546;7.906;2022-10-13T01:06:57;59.50;;;31.45;;
20056;SDS011;10189;49.546;7.906;2022-10-13T01:09:25;68.10;;;34.70;;
20056;SDS011;10189;49.546;7.906;2022-10-13T01:20:49;56.70;;;30.50;;
20056;SDS011;10189;49.546;7.906;2022-10-13T01:23:36;54.88;;;29.85;;
20056;SDS011;10189;49.546;7.906;2022-10-13T01:26:16;63.33;;;32.33;;
20056;SDS011;10189;49.546;7.906;2022-10-13T01:29:27;60.08;;;32.33;;
20056;SDS011;10189;49.546;7.906;2022-10-13T01:38:40;67.93;;;35.05;;
20056;SDS011;10189;49.546;7.906;2022-10-13T01:41:38;62.65;;;32.65;;
20056;SDS011;10189;49.546;7.906;2022-10-13T01:44:14;60.50;;;31.60;;
20056;SDS011;10189;49.546;7.906;2022-10-13T01:46:58;72.85;;;35.30;;
20056;SDS011;10189;49.546;7.906;2022-10-13T01:49:27;63.60;;;33.60;;
20056;SDS011;10189;49.546;7.906;2022-10-13T01:52:09;67.57;;;34.60;;
20056;SDS011;10189;49.546;7.906;2022-10-13T01:54:41;76.93;;;36.53;;
20056;SDS011;10189;49.546;7.906;2022-10-13T02:00:00;74.35;;;36.83;;
20056;SDS011;10189;49.546;7.906;2022-10-13T02:05:44;67.75;;;34.70;;
20056;SDS011;10189;49.546;7.906;2022-10-13T02:11:53;63.95;;;34.50;;
20056;SDS011;10189;49.546;7.906;2022-10-13T02:14:32;65.00;;;34.80;;
20056;SDS011;10189;49.546;7.906;2022-10-13T02:17:03;61.63;;;34.03;;
20056;SDS011;10189;49.546;7.906;2022-10-13T02:19:30;65.65;;;32.72;;
20056;SDS011;10189;49.546;7.906;2022-10-13T02:21:59;65.67;;;34.83;;
20056;SDS011;10189;49.546;7.906;2022-10-13T02:24:27;72.97;;;36.25;;
20056;SDS011;10189;49.546;7.906;2022-10-13T02:26:53;75.90;;;36.30;;
20056;SDS011;10189;49.546;7.906;2022-10-13T02:29:20;74.93;;;34.47;;
20056;SDS011;10189;49.546;7.906;2022-10-13T02:31:46;50.85;;;29.92;;
20056;SDS011;10189;49.546;7.906;2022-10-13T02:34:12;65.97;;;33.13;;
20056;SDS011;10189;49.546;7.906;2022-10-13T02:36:38;67.25;;;34.58;;
20056;SDS011;10189;49.546;7.906;2022-10-13T02:39:05;73.07;;;35.20;;
20056;SDS011;10189;49.546;7.906;2022-10-13T02:41:33;98.20;;;37.35;;
20056;SDS011;10189;49.546;7.906;2022-10-13T02:43:59;83.57;;;36.42;;
20056;SDS011;10189;49.546;7.906;2022-10-13T02:46:32;78.70;;;35.35;;
20056;SDS011;10189;49.546;7.906;2022-10-13T02:48:59;83.88;;;33.65;;
20056;SDS011;10189;49.546;7.906;2022-10-13T02:51:27;88.93;;;34.60;;
20056;SDS011;10189;49.546;7.906;2022-10-13T02:53:53;87.85;;;35.17;;
20056;SDS011;10189;49.546;7.906;2022-10-13T02:56:19;80.43;;;34.55;;
20056;SDS011;10189;49.546;7.906;2022-10-13T02:58:44;95.55;;;35.60;;
20056;SDS011;10189;49.546;7.906;2022-10-13T03:01:11;93.13;;;36.00;;
20056;SDS011;10189;49.546;7.906;2022-10-13T03:03:39;90.70;;;35.85;;
20056;SDS011;10189;49.546;7.906;2022-10-13T03:06:05;74.10;;;32.50;;
20056;SDS011;10189;49.546;7.906;2022-10-13T03:08:32;76.07;;;31.85;;
20056;SDS011;10189;49.546;7.906;2022-10-13T03:10:59;108.88;;;34.75;;
20056;SDS011;10189;49.546;7.906;2022-10-13T03:13:26;67.75;;;30.60;;
20056;SDS011;10189;49.546;7.906;2022-10-13T03:15:52;85.00;;;32.90;;
20056;SDS011;10189;49.546;7.906;2022-10-13T03:18:18;70.30;;;32.47;;
20056;SDS011;10189;49.546;7.906;2022-10-13T03:20:44;76.22;;;34.20;;
20056;SDS011;10189;49.546;7.906;2022-10-13T03:23:24;71.68;;;33.10;;
20056;SDS011;10189;49.546;7.906;2022-10-13T03:25:50;75.95;;;32.72;;
20056;SDS011;10189;49.546;7.906;2022-10-13T03:28:16;70.85;;;31.70;;
20056;SDS011;10189;49.546;7.906;2022-10-13T03:30:44;73.65;;;31.25;;
20056;SDS011;10189;49.546;7.906;2022-10-13T03:33:10;67.78;;;30.08;;
20056;SDS011;10189;49.546;7.906;2022-10-13T03:35:37;75.43;;;32.50;;
20056;SDS011;10189;49.546;7.906;2022-10-13T03:38:02;74.32;;;31.13;;
20056;SDS011;10189;49.546;7.906;2022-10-13T03:40:28;65.90;;;29.83;;
20056;SDS011;10189;49.546;7.906;2022-10-13T03:42:54;69.65;;;32.17;;
20056;SDS011;10189;49.546;7.906;2022-10-13T03:45:20;61.85;;;31.35;;
20056;SDS011;10189;49.546;7.906;2022-10-13T03:47:46;86.85;;;33.28;;
20056;SDS011;10189;49.546;7.906;2022-10-13T03:50:12;63.83;;;31.05;;
20056;SDS011;10189;49.546;7.906;2022-10-13T03:52:37;58.85;;;29.50;;
20056;SDS011;10189;49.546;7.906;2022-10-13T03:55:03;71.65;;;32.28;;
20056;SDS011;10189;49.546;7.906;2022-10-13T03:57:30;65.50;;;31.13;;
20056;SDS011;10189;49.546;7.906;2022-10-13T03:59:56;64.80;;;33.00;;
20056;SDS011;10189;49.546;7.906;2022-10-13T04:02:25;70.18;;;40.30;;
20056;SDS011;10189;49.546;7.906;2022-10-13T04:04:53;63.90;;;33.38;;
20056;SDS011;10189;49.546;7.906;2022-10-13T04:07:18;50.58;;;29.20;;
20056;SDS011;10189;49.546;7.906;2022-10-13T04:09:44;59.08;;;30.20;;
20056;SDS011;10189;49.546;7.906;2022-10-13T04:12:10;67.03;;;30.48;;
20056;SDS011;10189;49.546;7.906;2022-10-13T04:14:36;76.65;;;32.25;;
20056;SDS011;10189;49.546;7.906;2022-10-13T04:17:06;58.00;;;30.27;;
20056;SDS011;10189;49.546;7.906;2022-10-13T04:19:32;58.55;;;28.27;;
20056;SDS011;10189;49.546;7.906;2022-10-13T04:22:03;70.10;;;29.52;;
20056;SDS011;10189;49.546;7.906;2022-10-13T04:24:29;56.05;;;28.35;;
20056;SDS011;10189;49.546;7.906;2022-10-13T04:26:55;89.55;;;30.13;;
20056;SDS011;10189;49.546;7.906;2022-10-13T04:29:21;123.72;;;33.15;;
20056;SDS011;10189;49.546;7.906;2022-10-13T04:31:50;83.22;;;29.85;;
20056;SDS011;10189;49.546;7.906;2022-10-13T04:34:16;135.35;;;33.78;;
20056;SDS011;10189;49.546;7.906;2022-10-13T04:36:42;58.35;;;29.55;;
20056;SDS011;10189;49.546;7.906;2022-10-13T04:39:07;52.15;;;26.45;;
20056;SDS011;10189;49.546;7.906;2022-10-13T04:41:33;55.17;;;27.67;;
20056;SDS011;10189;49.546;7.906;2022-10-13T04:43:59;125.05;;;31.33;;
20056;SDS011;10189;49.546;7.906;2022-10-13T04:46:26;112.00;;;31.63;;
20056;SDS011;10189;49.546;7.906;2022-10-13T04:48:55;57.30;;;30.02;;
20056;SDS011;10189;49.546;7.906;2022-10-13T04:51:27;74.45;;;39.50;;
20056;SDS011;10189;49.546;7.906;2022-10-13T04:53:54;115.75;;;64.43;;
20056;SDS011;10189;49.546;7.906;2022-10-13T04:56:22;131.40;;;89.20;;
20056;SDS011;10189;49.546;7.906;2022-10-13T04:58:50;120.47;;;81.35;;
20056;SDS011;10189;49.546;7.906;2022-10-13T05:01:17;99.88;;;60.42;;
20056;SDS011;10189;49.546;7.906;2022-10-13T05:03:46;85.25;;;50.03;;
20056;SDS011;10189;49.546;7.906;2022-10-13T05:06:16;67.57;;;35.63;;
20056;SDS011;10189;49.546;7.906;2022-10-13T05:08:47;52.33;;;29.55;;
20056;SDS011;10189;49.546;7.906;2022-10-13T05:11:14;58.42;;;31.77;;
20056;SDS011;10189;49.546;7.906;2022-10-13T05:13:41;69.00;;;34.30;;
20056;SDS011;10189;49.546;7.906;2022-10-13T05:16:08;54.63;;;29.35;;
20056;SDS011;10189;49.546;7.906;2022-10-13T05:18:37;53.83;;;28.58;;
20056;SDS011;10189;49.546;7.906;2022-10-13T05:21:16;47.75;;;26.58;;
20056;SDS011;10189;49.546;7.906;2022-10-13T05:23:46;54.72;;;30.40;;
20056;SDS011;10189;49.546;7.906;2022-10-13T05:26:13;46.33;;;27.17;;
20056;SDS011;10189;49.546;7.906;2022-10-13T05:28:42;48.88;;;25.48;;
20056;SDS011;10189;49.546;7.906;2022-10-13T05:31:15;62.10;;;28.77;;
20056;SDS011;10189;49.546;7.906;2022-10-13T05:33:44;54.17;;;27.55;;
20056;SDS011;10189;49.546;7.906;2022-10-13T05:36:19;50.08;;;26.55;;
20056;SDS011;10189;49.546;7.906;2022-10-13T05:38:52;44.10;;;25.20;;
20056;SDS011;10189;49.546;7.906;2022-10-13T05:41:20;66.80;;;29.40;;
20056;SDS011;10189;49.546;7.906;2022-10-13T05:43:47;59.47;;;29.80;;
20056;SDS011;10189;49.546;7.906;2022-10-13T05:46:15;54.95;;;29.88;;
20056;SDS011;10189;49.546;7.906;2022-10-13T05:48:40;60.58;;;30.23;;
20056;SDS011;10189;49.546;7.906;2022-10-13T05:51:09;66.53;;;31.73;;
20056;SDS011;10189;49.546;7.906;2022-10-13T05:53:41;69.78;;;33.30;;
20056;SDS011;10189;49.546;7.906;2022-10-13T05:56:22;69.60;;;31.95;;
20056;SDS011;10189;49.546;7.906;2022-10-13T05:58:56;55.22;;;27.25;;
20056;SDS011;10189;49.546;7.906;2022-10-13T06:01:29;46.85;;;25.50;;
20056;SDS011;10189;49.546;7.906;2022-10-13T06:03:59;33.95;;;17.35;;
20056;SDS011;10189;49.546;7.906;2022-10-13T06:06:31;51.88;;;25.60;;
20056;SDS011;10189;49.546;7.906;2022-10-13T06:08:58;43.10;;;24.83;;
20056;SDS011;10189;49.546;7.906;2022-10-13T06:11:25;43.05;;;23.40;;
20056;SDS011;10189;49.546;7.906;2022-10-13T06:13:51;45.60;;;24.13;;
20056;SDS011;10189;49.546;7.906;2022-10-13T06:16:17;49.25;;;25.50;;
20056;SDS011;10189;49.546;7.906;2022-10-13T06:18:43;47.17;;;27.67;;
20056;SDS011;10189;49.546;7.906;2022-10-13T06:21:09;61.85;;;40.00;;
20056;SDS011;10189;49.546;7.906;2022-10-13T06:23:35;54.63;;;34.13;;
20056;SDS011;10189;49.546;7.906;2022-10-13T06:26:00;52.30;;;32.42;;
20056;SDS011;10189;49.546;7.906;2022-10-13T06:28:28;44.10;;;27.85;;
20056;SDS011;10189;49.546;7.906;2022-10-13T06:30:54;47.70;;;28.63;;
20056;SDS011;10189;49.546;7.906;2022-10-13T06:33:24;40.00;;;25.60;;
20056;SDS011;10189;49.546;7.906;2022-10-13T06:35:50;42.63;;;25.60;;
20056;SDS011;10189;49.546;7.906;2022-10-13T06:38:17;62.08;;;43.80;;
20056;SDS011;10189;49.546;7.906;2022-10-13T06:40:46;71.65;;;53.17;;
20056;SDS011;10189;49.546;7.906;2022-10-13T06:43:12;61.17;;;40.97;;
20056;SDS011;10189;49.546;7.906;2022-10-13T06:45:41;47.00;;;31.35;;
20056;SDS011;10189;49.546;7.906;2022-10-13T06:48:07;53.65;;;34.95;;
20056;SDS011;10189;49.546;7.906;2022-10-13T06:50:33;46.03;;;32.15;;
20056;SDS011;10189;49.546;7.906;2022-10-13T06:52:59;47.30;;;31.08;;
20056;SDS011;10189;49.546;7.906;2022-10-13T06:55:25;39.95;;;26.67;;
20056;SDS011;10189;49.546;7.906;2022-10-13T06:57:50;38.17;;;25.38;;
20056;SDS011;10189;49.546;7.906;2022-10-13T07:00:16;44.30;;;28.42;;
20056;SDS011;10189;49.546;7.906;2022-10-13T07:02:47;68.88;;;37.03;;
20056;SDS011;10189;49.546;7.906;2022-10-13T07:07:41;47.30;;;30.23;;
20056;SDS011;10189;49.546;7.906;2022-10-13T07:10:07;52.72;;;31.70;;
20056;SDS011;10189;49.546;7.906;2022-10-13T07:12:33;64.90;;;38.22;;
20056;SDS011;10189;49.546;7.906;2022-10-13T07:14:59;94.00;;;65.35;;
20056;SDS011;10189;49.546;7.906;2022-10-13T07:17:25;50.25;;;35.65;;
20056;SDS011;10189;49.546;7.906;2022-10-13T07:19:51;49.88;;;36.90;;
20056;SDS011;10189;49.546;7.906;2022-10-13T07:22:17;66.65;;;51.33;;
20056;SDS011;10189;49.546;7.906;2022-10-13T07:24:43;37.63;;;24.73;;
20056;SDS011;10189;49.546;7.906;2022-10-13T07:27:09;30.25;;;21.95;;
20056;SDS011;10189;49.546;7.906;2022-10-13T07:29:35;28.65;;;20.35;;
20056;SDS011;10189;49.546;7.906;2022-10-13T07:32:00;28.45;;;20.35;;
20056;SDS011;10189;49.546;7.906;2022-10-13T07:34:26;29.92;;;21.27;;
20056;SDS011;10189;49.546;7.906;2022-10-13T07:36:52;35.65;;;22.95;;
20056;SDS011;10189;49.546;7.906;2022-10-13T07:39:18;31.67;;;22.23;;
20056;SDS011;10189;49.546;7.906;2022-10-13T07:41:44;32.45;;;22.65;;
20056;SDS011;10189;49.546;7.906;2022-10-13T07:44:10;32.25;;;22.17;;
20056;SDS011;10189;49.546;7.906;2022-10-13T07:46:36;29.55;;;22.10;;
20056;SDS011;10189;49.546;7.906;2022-10-13T07:49:02;28.50;;;21.48;;
20056;SDS011;10189;49.546;7.906;2022-10-13T07:51:27;32.55;;;21.35;;
20056;SDS011;10189;49.546;7.906;2022-10-13T07:53:53;29.20;;;22.17;;
20056;SDS011;10189;49.546;7.906;2022-10-13T07:56:19;31.83;;;22.25;;
20056;SDS011;10189;49.546;7.906;2022-10-13T07:58:45;29.17;;;21.17;;
20056;SDS011;10189;49.546;7.906;2022-10-13T08:01:12;26.08;;;20.10;;
20056;SDS011;10189;49.546;7.906;2022-10-13T08:03:40;27.75;;;19.90;;
20056;SDS011;10189;49.546;7.906;2022-10-13T08:06:07;25.58;;;20.13;;
20056;SDS011;10189;49.546;7.906;2022-10-13T08:08:34;32.17;;;21.83;;
20056;SDS011;10189;49.546;7.906;2022-10-13T08:11:01;27.48;;;20.13;;
20056;SDS011;10189;49.546;7.906;2022-10-13T08:13:33;27.58;;;20.58;;
20056;SDS011;10189;49.546;7.906;2022-10-13T08:16:11;30.80;;;23.30;;
20056;SDS011;10189;49.546;7.906;2022-10-13T08:18:37;37.30;;;27.52;;
20056;SDS011;10189;49.546;7.906;2022-10-13T08:21:08;33.97;;;24.77;;
20056;SDS011;10189;49.546;7.906;2022-10-13T08:23:37;28.13;;;20.13;;
20056;SDS011;10189;49.546;7.906;2022-10-13T08:26:03;29.90;;;21.17;;
20056;SDS011;10189;49.546;7.906;2022-10-13T08:28:30;27.45;;;20.85;;
20056;SDS011;10189;49.546;7.906;2022-10-13T08:30:56;33.13;;;22.23;;
20056;SDS011;10189;49.546;7.906;2022-10-13T08:33:22;32.10;;;22.30;;
20056;SDS011;10189;49.546;7.906;2022-10-13T08:35:50;34.13;;;23.73;;
20056;SDS011;10189;49.546;7.906;2022-10-13T08:38:17;32.75;;;22.67;;
20056;SDS011;10189;49.546;7.906;2022-10-13T08:40:47;32.33;;;22.70;;
20056;SDS011;10189;49.546;7.906;2022-10-13T08:45:47;33.80;;;23.00;;
20056;SDS011;10189;49.546;7.906;2022-10-13T08:48:18;35.70;;;24.40;;
20056;SDS011;10189;49.546;7.906;2022-10-13T08:50:50;34.92;;;23.15;;
20056;SDS011;10189;49.546;7.906;2022-10-13T08:53:30;34.25;;;23.73;;
20056;SDS011;10189;49.546;7.906;2022-10-13T08:58:50;34.17;;;21.90;;
20056;SDS011;10189;49.546;7.906;2022-10-13T09:01:29;52.38;;;32.83;;
20056;SDS011;10189;49.546;7.906;2022-10-13T09:04:18;70.15;;;46.20;;
20056;SDS011;10189;49.546;7.906;2022-10-13T09:07:39;35.15;;;22.90;;
20056;SDS011;10189;49.546;7.906;2022-10-13T09:09:43;31.55;;;21.90;;
20056;SDS011;10189;49.546;7.906;2022-10-13T09:12:10;31.17;;;20.48;;
20056;SDS011;10189;49.546;7.906;2022-10-13T09:14:38;61.97;;;43.67;;
20056;SDS011;10189;49.546;7.906;2022-10-13T09:25:38;31.67;;;20.65;;
20056;SDS011;10189;49.546;7.906;2022-10-13T09:28:17;33.63;;;23.60;;
20056;SDS011;10189;49.546;7.906;2022-10-13T09:30:44;29.02;;;19.98;;
20056;SDS011;10189;49.546;7.906;2022-10-13T09:38:10;32.00;;;21.27;;
20056;SDS011;10189;49.546;7.906;2022-10-13T09:40:58;39.05;;;28.08;;
20056;SDS011;10189;49.546;7.906;2022-10-13T09:46:25;34.38;;;23.70;;
20056;SDS011;10189;49.546;7.906;2022-10-13T09:48:58;33.30;;;23.60;;
20056;SDS011;10189;49.546;7.906;2022-10-13T09:54:50;30.75;;;22.80;;
20056;SDS011;10189;49.546;7.906;2022-10-13T10:02:56;35.83;;;23.70;;
20056;SDS011;10189;49.546;7.906;2022-10-13T10:05:27;29.67;;;20.40;;
20056;SDS011;10189;49.546;7.906;2022-10-13T10:11:11;28.40;;;19.73;;
20056;SDS011;10189;49.546;7.906;2022-10-13T10:14:30;30.75;;;20.20;;
20056;SDS011;10189;49.546;7.906;2022-10-13T10:22:58;43.15;;;34.30;;
20056;SDS011;10189;49.546;7.906;2022-10-13T10:34:35;18.88;;;13.07;;
20056;SDS011;10189;49.546;7.906;2022-10-13T10:37:36;15.93;;;11.57;;
20056;SDS011;10189;49.546;7.906;2022-10-13T10:41:12;19.08;;;12.00;;
20056;SDS011;10189;49.546;7.906;2022-10-13T10:46:50;20.05;;;12.65;;
20056;SDS011;10189;49.546;7.906;2022-10-13T10:49:26;14.98;;;11.40;;
20056;SDS011;10189;49.546;7.906;2022-10-13T10:52:00;14.68;;;10.68;;
20056;SDS011;10189;49.546;7.906;2022-10-13T10:54:53;17.20;;;12.63;;
20056;SDS011;10189;49.546;7.906;2022-10-13T11:00:52;20.83;;;11.73;;
20056;SDS011;10189;49.546;7.906;2022-10-13T11:06:45;19.38;;;13.88;;
20056;SDS011;10189;49.546;7.906;2022-10-13T11:09:11;16.35;;;13.27;;
20056;SDS011;10189;49.546;7.906;2022-10-13T11:11:37;21.25;;;14.77;;
20056;SDS011;10189;49.546;7.906;2022-10-13T11:19:29;22.95;;;15.82;;
20056;SDS011;10189;49.546;7.906;2022-10-13T11:37:48;19.60;;;14.48;;
20056;SDS011;10189;49.546;7.906;2022-10-13T11:40:23;20.17;;;14.77;;
20056;SDS011;10189;49.546;7.906;2022-10-13T11:43:02;21.13;;;15.30;;
20056;SDS011;10189;49.546;7.906;2022-10-13T11:54:35;22.08;;;15.20;;
20056;SDS011;10189;49.546;7.906;2022-10-13T11:57:48;23.90;;;16.55;;
20056;SDS011;10189;49.546;7.906;2022-10-13T12:00:15;22.00;;;16.25;;
20056;SDS011;10189;49.546;7.906;2022-10-13T12:02:50;22.70;;;17.45;;
20056;SDS011;10189;49.546;7.906;2022-10-13T12:07:49;26.80;;;18.20;;
20056;SDS011;10189;49.546;7.906;2022-10-13T12:10:22;24.05;;;17.38;;
20056;SDS011;10189;49.546;7.906;2022-10-13T12:12:56;21.95;;;17.52;;
20056;SDS011;10189;49.546;7.906;2022-10-13T12:15:30;26.17;;;18.17;;
20056;SDS011;10189;49.546;7.906;2022-10-13T12:18:00;24.15;;;16.85;;
20056;SDS011;10189;49.546;7.906;2022-10-13T12:20:43;22.20;;;15.85;;
20056;SDS011;10189;49.546;7.906;2022-10-13T12:23:21;24.50;;;17.23;;
20056;SDS011;10189;49.546;7.906;2022-10-13T12:25:48;23.23;;;16.80;;
20056;SDS011;10189;49.546;7.906;2022-10-13T12:28:22;28.02;;;18.67;;
20056;SDS011;10189;49.546;7.906;2022-10-13T12:30:56;29.77;;;20.23;;
20056;SDS011;10189;49.546;7.906;2022-10-13T12:33:31;24.63;;;17.40;;
20056;SDS011;10189;49.546;7.906;2022-10-13T12:36:11;26.65;;;17.08;;
20056;SDS011;10189;49.546;7.906;2022-10-13T12:38:50;24.02;;;18.52;;
20056;SDS011;10189;49.546;7.906;2022-10-13T12:41:23;23.73;;;17.90;;
20056;SDS011;10189;49.546;7.906;2022-10-13T12:43:53;24.10;;;17.30;;
20056;SDS011;10189;49.546;7.906;2022-10-13T12:46:38;24.80;;;16.92;;
20056;SDS011;10189;49.546;7.906;2022-10-13T12:49:16;23.20;;;18.13;;
20056;SDS011;10189;49.546;7.906;2022-10-13T12:51:51;29.25;;;23.02;;
20056;SDS011;10189;49.546;7.906;2022-10-13T12:54:36;25.67;;;18.35;;
20056;SDS011;10189;49.546;7.906;2022-10-13T12:57:15;25.08;;;16.60;;
20056;SDS011;10189;49.546;7.906;2022-10-13T12:59:51;27.30;;;18.00;;
20056;SDS011;10189;49.546;7.906;2022-10-13T13:02:24;21.27;;;17.33;;
20056;SDS011;10189;49.546;7.906;2022-10-13T13:04:55;22.55;;;17.27;;
20056;SDS011;10189;49.546;7.906;2022-10-13T13:07:28;23.67;;;18.88;;
20056;SDS011;10189;49.546;7.906;2022-10-13T13:09:59;26.80;;;18.17;;
20056;SDS011;10189;49.546;7.906;2022-10-13T13:12:34;20.75;;;17.35;;
20056;SDS011;10189;49.546;7.906;2022-10-13T13:15:19;22.30;;;17.33;;
20056;SDS011;10189;49.546;7.906;2022-10-13T13:17:51;23.13;;;16.90;;
20056;SDS011;10189;49.546;7.906;2022-10-13T13:20:27;24.05;;;17.25;;
20056;SDS011;10189;49.546;7.906;2022-10-13T13:22:58;23.50;;;16.98;;
20056;SDS011;10189;49.546;7.906;2022-10-13T13:25:25;25.50;;;15.73;;
20056;SDS011;10189;49.546;7.906;2022-10-13T13:27:51;23.13;;;17.10;;
20056;SDS011;10189;49.546;7.906;2022-10-13T13:30:19;23.65;;;17.13;;
20056;SDS011;10189;49.546;7.906;2022-10-13T13:32:48;22.23;;;16.75;;
20056;SDS011;10189;49.546;7.906;2022-10-13T13:35:15;20.85;;;16.40;;
20056;SDS011;10189;49.546;7.906;2022-10-13T13:37:43;20.85;;;16.85;;
20056;SDS011;10189;49.546;7.906;2022-10-13T13:40:15;20.42;;;15.48;;
20056;SDS011;10189;49.546;7.906;2022-10-13T13:42:47;18.05;;;14.93;;
20056;SDS011;10189;49.546;7.906;2022-10-13T13:45:13;21.35;;;15.48;;
20056;SDS011;10189;49.546;7.906;2022-10-13T13:47:42;20.85;;;15.38;;
20056;SDS011;10189;49.546;7.906;2022-10-13T13:50:22;20.73;;;15.93;;
20056;SDS011;10189;49.546;7.906;2022-10-13T13:52:54;22.30;;;17.20;;
20056;SDS011;10189;49.546;7.906;2022-10-13T13:55:21;21.23;;;15.35;;
20056;SDS011;10189;49.546;7.906;2022-10-13T13:57:47;20.15;;;16.13;;
20056;SDS011;10189;49.546;7.906;2022-10-13T14:00:14;21.33;;;15.40;;
20056;SDS011;10189;49.546;7.906;2022-10-13T14:02:44;21.17;;;16.98;;
20056;SDS011;10189;49.546;7.906;2022-10-13T14:05:11;23.77;;;16.67;;
20056;SDS011;10189;49.546;7.906;2022-10-13T14:07:37;21.77;;;17.30;;
20056;SDS011;10189;49.546;7.906;2022-10-13T14:10:04;20.73;;;17.10;;
20056;SDS011;10189;49.546;7.906;2022-10-13T14:12:33;23.83;;;17.80;;
20056;SDS011;10189;49.546;7.906;2022-10-13T14:14:59;22.65;;;18.10;;
20056;SDS011;10189;49.546;7.906;2022-10-13T14:17:26;21.95;;;16.60;;
20056;SDS011;10189;49.546;7.906;2022-10-13T14:19:52;22.90;;;17.33;;
20056;SDS011;10189;49.546;7.906;2022-10-13T14:22:19;30.90;;;18.35;;
20056;SDS011;10189;49.546;7.906;2022-10-13T14:24:46;24.08;;;18.70;;
20056;SDS011;10189;49.546;7.906;2022-10-13T14:27:12;21.35;;;16.92;;
20056;SDS011;10189;49.546;7.906;2022-10-13T14:29:38;23.10;;;17.38;;
20056;SDS011;10189;49.546;7.906;2022-10-13T14:32:04;21.65;;;17.48;;
20056;SDS011;10189;49.546;7.906;2022-10-13T14:34:30;21.08;;;18.17;;
20056;SDS011;10189;49.546;7.906;2022-10-13T14:36:57;22.83;;;18.00;;
20056;SDS011;10189;49.546;7.906;2022-10-13T14:39:23;23.10;;;17.77;;
20056;SDS011;10189;49.546;7.906;2022-10-13T14:41:49;20.95;;;16.30;;
20056;SDS011;10189;49.546;7.906;2022-10-13T14:44:15;24.27;;;19.60;;
20056;SDS011;10189;49.546;7.906;2022-10-13T14:46:43;25.73;;;18.35;;
20056;SDS011;10189;49.546;7.906;2022-10-13T14:49:10;24.80;;;18.52;;
20056;SDS011;10189;49.546;7.906;2022-10-13T14:54:06;29.70;;;20.02;;
20056;SDS011;10189;49.546;7.906;2022-10-13T14:56:32;24.15;;;19.17;;
20056;SDS011;10189;49.546;7.906;2022-10-13T14:59:00;26.10;;;19.88;;
20056;SDS011;10189;49.546;7.906;2022-10-13T15:01:34;25.23;;;18.35;;
20056;SDS011;10189;49.546;7.906;2022-10-13T15:04:02;24.77;;;19.92;;
20056;SDS011;10189;49.546;7.906;2022-10-13T15:06:29;25.30;;;20.27;;
20056;SDS011;10189;49.546;7.906;2022-10-13T15:08:56;26.35;;;20.60;;
20056;SDS011;10189;49.546;7.906;2022-10-13T15:11:22;28.85;;;20.60;;
20056;SDS011;10189;49.546;7.906;2022-10-13T15:13:49;27.25;;;19.77;;
20056;SDS011;10189;49.546;7.906;2022-10-13T15:16:23;33.58;;;21.48;;
20056;SDS011;10189;49.546;7.906;2022-10-13T15:18:52;30.35;;;21.77;;
20056;SDS011;10189;49.546;7.906;2022-10-13T15:21:19;29.00;;;22.60;;
20056;SDS011;10189;49.546;7.906;2022-10-13T15:23:46;26.25;;;21.05;;
20056;SDS011;10189;49.546;7.906;2022-10-13T15:26:13;28.98;;;21.50;;
20056;SDS011;10189;49.546;7.906;2022-10-13T15:28:43;27.52;;;21.23;;
20056;SDS011;10189;49.546;7.906;2022-10-13T15:31:12;27.17;;;22.15;;
20056;SDS011;10189;49.546;7.906;2022-10-13T15:33:41;32.10;;;22.35;;
20056;SDS011;10189;49.546;7.906;2022-10-13T15:36:09;26.02;;;21.05;;
20056;SDS011;10189;49.546;7.906;2022-10-13T15:38:37;30.90;;;21.98;;
20056;SDS011;10189;49.546;7.906;2022-10-13T15:41:04;36.15;;;24.40;;
20056;SDS011;10189;49.546;7.906;2022-10-13T15:43:32;32.17;;;22.10;;
20056;SDS011;10189;49.546;7.906;2022-10-13T15:45:59;26.88;;;21.10;;
20056;SDS011;10189;49.546;7.906;2022-10-13T15:48:45;31.33;;;22.73;;
20056;SDS011;10189;49.546;7.906;2022-10-13T15:51:13;32.80;;;23.75;;
20056;SDS011;10189;49.546;7.906;2022-10-13T15:53:43;31.85;;;22.27;;
20056;SDS011;10189;49.546;7.906;2022-10-13T15:56:10;34.83;;;25.33;;
20056;SDS011;10189;49.546;7.906;2022-10-13T15:58:36;37.53;;;29.25;;
20056;SDS011;10189;49.546;7.906;2022-10-13T16:01:05;36.33;;;27.30;;
20056;SDS011;10189;49.546;7.906;2022-10-13T16:03:33;35.72;;;25.42;;
20056;SDS011;10189;49.546;7.906;2022-10-13T16:06:01;32.38;;;24.08;;
20056;SDS011;10189;49.546;7.906;2022-10-13T16:08:39;32.42;;;23.92;;
20056;SDS011;10189;49.546;7.906;2022-10-13T16:11:10;30.65;;;23.15;;
20056;SDS011;10189;49.546;7.906;2022-10-13T16:13:39;31.83;;;24.23;;
20056;SDS011;10189;49.546;7.906;2022-10-13T16:16:09;20.97;;;16.47;;
20056;SDS011;10189;49.546;7.906;2022-10-13T16:18:36;35.95;;;26.95;;
20056;SDS011;10189;49.546;7.906;2022-10-13T16:21:17;38.67;;;27.55;;
20056;SDS011;10189;49.546;7.906;2022-10-13T16:23:46;57.17;;;43.90;;
20056;SDS011;10189;49.546;7.906;2022-10-13T16:26:13;47.53;;;36.50;;
20056;SDS011;10189;49.546;7.906;2022-10-13T16:28:41;47.10;;;35.85;;
20056;SDS011;10189;49.546;7.906;2022-10-13T16:31:09;52.35;;;40.78;;
20056;SDS011;10189;49.546;7.906;2022-10-13T16:33:40;42.30;;;31.70;;
20056;SDS011;10189;49.546;7.906;2022-10-13T16:36:09;38.70;;;30.02;;
20056;SDS011;10189;49.546;7.906;2022-10-13T16:38:41;44.88;;;31.55;;
20056;SDS011;10189;49.546;7.906;2022-10-13T16:41:11;39.33;;;29.63;;
20056;SDS011;10189;49.546;7.906;2022-10-13T16:43:42;36.83;;;29.80;;